createdAt,value
2022-11-24T00:02:29.708Z,98107.03
2022-11-24T00:05:32.040Z,98111.50
2022-11-24T00:08:35.397Z,98117.09
2022-11-24T00:11:37.814Z,98115.94
2022-11-24T00:14:39.999Z,98117.56
2022-11-24T00:17:42.186Z,98117.09
2022-11-24T00:20:52.091Z,98120.63
2022-11-24T00:23:54.710Z,98120.72
2022-11-24T00:26:57.132Z,98118.81
2022-11-24T00:29:59.652Z,98127.31
2022-11-24T00:33:01.827Z,98127.38
2022-11-24T00:36:04.207Z,98125.97
2022-11-24T00:39:10.096Z,98135.50
2022-11-24T00:42:12.257Z,98139.34
2022-11-24T00:45:14.483Z,98132.06
2022-11-24T00:48:16.737Z,98136.31
2022-11-24T00:51:20.025Z,98141.59
2022-11-24T00:54:22.344Z,98143.44
2022-11-24T00:57:24.512Z,98155.97
2022-11-24T01:00:26.733Z,98158.03
2022-11-24T01:03:28.952Z,98157.00
2022-11-24T01:06:32.553Z,98163.91
2022-11-24T01:09:35.025Z,98160.22
2022-11-24T01:12:37.194Z,98153.31
2022-11-24T01:15:39.923Z,98157.37
2022-11-24T01:18:42.161Z,98163.47
2022-11-24T01:21:44.401Z,98163.03
2022-11-24T01:24:46.638Z,98160.81
2022-11-24T01:27:48.923Z,98166.47
2022-11-24T01:31:01.038Z,98166.47
2022-11-24T01:34:03.331Z,98161.38
2022-11-24T01:37:05.532Z,98156.53
2022-11-24T01:40:08.490Z,98165.28
2022-11-24T01:43:24.844Z,98166.34
2022-11-24T01:46:42.439Z,98168.53
2022-11-24T01:49:53.754Z,98170.75
2022-11-24T01:52:56.991Z,98170.78
2022-11-24T01:55:59.409Z,98175.44
2022-11-24T01:59:03.475Z,98178.47
2022-11-24T02:02:05.878Z,98175.41
2022-11-24T02:05:17.555Z,98179.47
2022-11-24T02:08:42.884Z,98184.91
2022-11-24T02:11:45.478Z,98182.72
2022-11-24T02:14:47.684Z,98188.19
2022-11-24T02:17:49.879Z,98181.25
2022-11-24T02:20:52.218Z,98183.69
2022-11-24T02:24:00.827Z,98181.28
2022-11-24T02:27:03.709Z,98180.47
2022-11-24T02:30:06.217Z,98176.66
2022-11-24T02:33:08.555Z,98175.41
2022-11-24T02:36:10.913Z,98178.03
2022-11-24T02:39:14.144Z,98177.44
2022-11-24T02:42:16.355Z,98178.06
2022-11-24T02:45:18.675Z,98176.25
2022-11-24T02:48:20.831Z,98175.81
2022-11-24T02:51:23.136Z,98176.66
2022-11-24T02:54:25.402Z,98169.22
2022-11-24T02:57:27.587Z,98176.72
2022-11-24T03:00:29.777Z,98179.53
2022-11-24T03:03:31.998Z,98184.12
2022-11-24T03:06:34.193Z,98187.91
2022-11-24T03:09:36.473Z,98180.22
2022-11-24T03:12:38.704Z,98177.94
2022-11-24T03:15:41.403Z,98179.03
2022-11-24T03:18:43.615Z,98179.06
2022-11-24T03:21:45.816Z,98183.69
2022-11-24T03:24:47.961Z,98188.72
2022-11-24T03:27:50.139Z,98189.13
2022-11-24T03:30:52.731Z,98192.44
2022-11-24T03:33:54.892Z,98185.34
2022-11-24T03:36:57.076Z,98190.47
2022-11-24T03:39:59.261Z,98196.78
2022-11-24T03:43:01.386Z,98195.91
2022-11-24T03:46:03.624Z,98190.41
2022-11-24T03:49:05.892Z,98191.22
2022-11-24T03:52:08.793Z,98201.50
2022-11-24T03:55:10.934Z,98204.38
2022-11-24T03:58:13.103Z,98209.59
2022-11-24T04:01:15.423Z,98211.44
2022-11-24T04:04:17.748Z,98214.50
2022-11-24T04:07:19.980Z,98224.81
2022-11-24T04:10:22.209Z,98230.66
2022-11-24T04:13:25.638Z,98222.53
2022-11-24T04:16:27.881Z,98219.47
2022-11-24T04:19:30.670Z,98229.56
2022-11-24T04:22:32.922Z,98231.56
2022-11-24T04:25:35.607Z,98241.91
2022-11-24T04:28:38.573Z,98237.34
2022-11-24T04:31:40.807Z,98243.72
2022-11-24T04:34:43.218Z,98243.19
2022-11-24T04:37:45.687Z,98246.88
2022-11-24T04:40:47.846Z,98252.69
2022-11-24T04:43:50.684Z,98248.22
2022-11-24T04:46:52.941Z,98257.19
2022-11-24T04:49:55.456Z,98251.50
2022-11-24T04:52:57.627Z,98258.69
2022-11-24T04:55:59.884Z,98261.69
2022-11-24T04:59:07.808Z,98257.47
2022-11-24T05:02:11.123Z,98256.19
2022-11-24T05:05:13.460Z,98264.50
2022-11-24T05:08:15.775Z,98262.75
2022-11-24T05:11:18.356Z,98270.81
2022-11-24T05:14:20.525Z,98283.06
2022-11-24T05:17:22.889Z,98288.31
2022-11-24T05:20:25.531Z,98291.56
2022-11-24T05:23:27.695Z,98304.34
2022-11-24T05:26:29.925Z,98295.94
2022-11-24T05:29:32.108Z,98312.38
2022-11-24T05:32:34.353Z,98311.97
2022-11-24T05:35:36.696Z,98312.53
2022-11-24T05:38:38.860Z,98318.78
2022-11-24T05:41:41.981Z,98320.88
2022-11-24T05:44:44.139Z,98329.88
2022-11-24T05:47:47.146Z,98336.66
2022-11-24T05:50:56.550Z,98344.34
2022-11-24T05:53:58.867Z,98349.44
2022-11-24T05:57:01.086Z,98351.16
2022-11-24T06:00:07.259Z,98353.44
2022-11-24T06:03:10.884Z,98358.19
2022-11-24T06:06:13.157Z,98360.63
2022-11-24T06:09:15.733Z,98366.03
2022-11-24T06:12:17.988Z,98361.06
2022-11-24T06:15:20.360Z,98361.13
2022-11-24T06:18:22.500Z,98363.94
2022-11-24T06:21:24.688Z,98370.28
2022-11-24T06:24:26.914Z,98370.41
2022-11-24T06:27:29.048Z,98379.84
2022-11-24T06:30:31.242Z,98378.84
2022-11-24T06:33:35.120Z,98383.53
2022-11-24T06:36:38.194Z,98381.22
2022-11-24T06:39:40.335Z,98382.28
2022-11-24T06:42:42.469Z,98384.50
2022-11-24T06:45:44.622Z,98393.25
2022-11-24T06:48:47.380Z,98395.34
2022-11-24T06:51:49.827Z,98396.59
2022-11-24T06:54:52.051Z,98397.88
2022-11-24T06:57:54.223Z,98407.78
2022-11-24T07:00:56.476Z,98410.84
2022-11-24T07:03:59.197Z,98406.06
2022-11-24T07:07:02.628Z,98403.28
2022-11-24T07:10:05.329Z,98403.72
2022-11-24T07:13:08.131Z,98412.00
2022-11-24T07:16:15.426Z,98414.38
2022-11-24T07:19:23.129Z,98415.81
2022-11-24T07:22:26.950Z,98432.88
2022-11-24T07:25:29.092Z,98426.28
2022-11-24T07:28:31.569Z,98434.78
2022-11-24T07:31:33.964Z,98434.12
2022-11-24T07:34:36.456Z,98447.91
2022-11-24T07:37:38.825Z,98446.41
2022-11-24T07:40:41.045Z,98453.19
2022-11-24T07:43:43.213Z,98450.50
2022-11-24T07:46:45.497Z,98458.06
2022-11-24T07:49:47.716Z,98456.94
2022-11-24T07:52:50.089Z,98461.75
2022-11-24T07:55:56.564Z,98460.06
2022-11-24T07:58:58.829Z,98458.47
2022-11-24T08:02:01.769Z,98461.69
2022-11-24T08:05:04.192Z,98455.03
2022-11-24T08:08:06.370Z,98459.81
2022-11-24T08:11:11.252Z,98460.50
2022-11-24T08:14:13.447Z,98471.34
2022-11-24T08:17:15.873Z,98473.94
2022-11-24T08:20:18.179Z,98477.94
2022-11-24T08:23:20.383Z,98478.56
2022-11-24T08:26:23.064Z,98472.09
2022-11-24T08:29:29.502Z,98478.03
2022-11-24T08:32:31.674Z,98477.91
2022-11-24T08:35:37.646Z,98471.47
2022-11-24T08:38:40.388Z,98485.09
2022-11-24T08:41:42.599Z,98488.81
2022-11-24T08:44:44.776Z,98484.19
2022-11-24T08:47:52.510Z,98488.81
2022-11-24T08:50:54.798Z,98487.00
2022-11-24T08:53:59.166Z,98499.47
2022-11-24T08:57:01.324Z,98502.94
2022-11-24T09:00:05.537Z,98496.34
2022-11-24T09:03:09.594Z,98505.16
2022-11-24T09:06:11.892Z,98502.09
2022-11-24T09:09:14.134Z,98502.47
2022-11-24T09:12:16.341Z,98505.69
2022-11-24T09:15:20.343Z,98510.47
2022-11-24T09:18:25.237Z,98503.06
2022-11-24T09:21:34.242Z,98512.41
2022-11-24T09:24:36.519Z,98515.09
2022-11-24T09:27:38.820Z,98505.69
2022-11-24T09:30:41.039Z,98512.09
2022-11-24T09:33:43.893Z,98508.28
2022-11-24T09:36:46.134Z,98510.44
2022-11-24T09:39:48.327Z,98512.19
2022-11-24T09:42:54.427Z,98506.78
2022-11-24T09:46:13.650Z,98512.28
2022-11-24T09:49:22.362Z,98519.69
2022-11-24T09:52:45.930Z,98516.84
2022-11-24T09:55:52.677Z,98524.25
2022-11-24T09:59:00.510Z,98522.50
2022-11-24T10:02:02.873Z,98516.47
2022-11-24T10:05:06.109Z,98525.69
2022-11-24T10:08:24.027Z,98515.00
2022-11-24T10:11:35.021Z,98524.09
2022-11-24T10:15:05.053Z,98533.66
2022-11-24T10:18:17.266Z,98536.22
2022-11-24T10:21:25.563Z,98537.41
2022-11-24T10:24:46.675Z,98538.56
2022-11-24T10:28:18.024Z,98540.03
2022-11-24T10:31:33.741Z,98537.50
2022-11-24T10:34:39.623Z,98530.44
2022-11-24T10:37:47.240Z,98537.44
2022-11-24T10:40:57.881Z,98537.31
2022-11-24T10:44:00.513Z,98532.75
2022-11-24T10:47:03.710Z,98541.16
2022-11-24T10:50:26.013Z,98541.16
2022-11-24T10:53:30.414Z,98551.03
2022-11-24T10:56:40.416Z,98544.19
2022-11-24T10:59:42.710Z,98547.22
2022-11-24T11:02:46.023Z,98545.56
2022-11-24T11:06:09.124Z,98553.16
2022-11-24T11:09:14.469Z,98558.63
2022-11-24T11:12:43.739Z,98561.41
2022-11-24T11:15:46.715Z,98566.50
2022-11-24T11:18:49.568Z,98570.19
2022-11-24T11:22:02.337Z,98567.81
2022-11-24T11:25:19.109Z,98563.81
2022-11-24T11:28:28.243Z,98573.22
2022-11-24T11:31:34.383Z,98575.97
2022-11-24T11:34:36.953Z,98576.94
2022-11-24T11:37:39.431Z,98583.50
2022-11-24T11:40:43.823Z,98588.78
2022-11-24T11:43:47.387Z,98586.81
2022-11-24T11:46:49.687Z,98588.03
2022-11-24T11:49:52.954Z,98583.50
2022-11-24T11:53:01.308Z,98590.16
2022-11-24T11:56:03.397Z,98591.37
2022-11-24T11:59:36.459Z,98590.91
2022-11-24T12:03:10.503Z,98588.72
2022-11-24T12:06:25.409Z,98587.12
2022-11-24T12:09:41.518Z,98587.03
2022-11-24T12:12:53.875Z,98598.22
2022-11-24T12:15:58.021Z,98599.03
2022-11-24T12:19:25.751Z,98600.19
2022-11-24T12:22:46.010Z,98605.06
2022-11-24T12:25:54.605Z,98607.94
2022-11-24T12:29:28.071Z,98603.44
2022-11-24T12:32:35.833Z,98610.25
2022-11-24T12:35:56.606Z,98615.00
2022-11-24T12:39:18.953Z,98605.28
2022-11-24T12:42:27.155Z,98608.63
2022-11-24T12:45:38.782Z,98612.69
2022-11-24T12:49:08.410Z,98605.91
2022-11-24T12:52:21.295Z,98608.56
2022-11-24T12:55:23.785Z,98608.16
2022-11-24T12:58:32.975Z,98603.41
2022-11-24T13:01:40.987Z,98604.81
2022-11-24T13:04:50.267Z,98607.97
2022-11-24T13:08:03.114Z,98608.63
2022-11-24T13:11:23.526Z,98603.19
2022-11-24T13:14:32.731Z,98615.88
2022-11-24T13:17:50.315Z,98616.59
2022-11-24T13:20:58.026Z,98618.12
2022-11-24T13:24:03.923Z,98625.53
2022-11-24T13:27:15.405Z,98626.59
2022-11-24T13:30:35.816Z,98630.31
2022-11-24T13:33:38.660Z,98635.63
2022-11-24T13:36:59.168Z,98639.84
2022-11-24T13:40:22.571Z,98630.00
2022-11-24T13:43:25.007Z,98649.00
2022-11-24T13:47:15.067Z,98642.00
2022-11-24T13:50:21.384Z,98645.66
2022-11-24T13:53:53.394Z,98649.50
2022-11-24T13:57:11.526Z,98660.88
2022-11-24T14:00:35.069Z,98660.53
2022-11-24T14:07:25.976Z,98669.53
2022-11-24T14:10:34.022Z,98672.44
2022-11-24T14:13:36.178Z,98678.47
2022-11-24T14:16:38.410Z,98676.75
2022-11-24T14:19:44.953Z,98680.53
2022-11-24T14:22:47.148Z,98691.88
2022-11-24T14:25:50.556Z,98683.53
2022-11-24T14:28:53.790Z,98684.66
2022-11-24T14:31:58.641Z,98686.41
2022-11-24T14:35:00.841Z,98689.78
2022-11-24T14:38:05.055Z,98703.84
2022-11-24T14:41:26.199Z,98703.03
2022-11-24T14:44:30.999Z,98703.59
2022-11-24T14:47:38.066Z,98704.16
2022-11-24T14:50:40.351Z,98704.53
2022-11-24T14:53:44.199Z,98708.22
2022-11-24T14:57:19.954Z,98704.78
2022-11-24T15:00:24.920Z,98712.31
2022-11-24T15:03:27.242Z,98714.06
2022-11-24T15:06:29.503Z,98719.50
2022-11-24T15:09:31.658Z,98719.69
2022-11-24T15:12:39.244Z,98724.59
2022-11-24T15:15:47.712Z,98730.19
2022-11-24T15:18:57.471Z,98737.03
2022-11-24T15:21:59.741Z,98734.47
2022-11-24T15:25:02.860Z,98735.94
2022-11-24T15:28:05.147Z,98731.38
2022-11-24T15:31:12.040Z,98741.09
2022-11-24T15:34:14.624Z,98746.00
2022-11-24T15:37:16.788Z,98742.75
2022-11-24T15:40:19.494Z,98749.00
2022-11-24T15:43:38.088Z,98748.50
2022-11-24T15:46:40.294Z,98745.50
2022-11-24T15:49:42.522Z,98753.94
2022-11-24T15:52:45.795Z,98748.78
2022-11-24T15:55:48.729Z,98757.97
2022-11-24T15:58:51.431Z,98751.59
2022-11-24T16:01:53.721Z,98754.66
2022-11-24T16:04:55.873Z,98749.69
2022-11-24T16:07:58.136Z,98750.94
2022-11-24T16:11:00.377Z,98761.47
2022-11-24T16:14:02.601Z,98757.97
2022-11-24T16:17:05.165Z,98770.19
2022-11-24T16:20:07.754Z,98769.88
2022-11-24T16:23:09.940Z,98766.22
2022-11-24T16:26:12.096Z,98767.13
2022-11-24T16:29:15.513Z,98769.69
2022-11-24T16:32:17.665Z,98777.41
2022-11-24T16:35:20.200Z,98774.84
2022-11-24T16:38:22.604Z,98779.75
2022-11-24T16:41:25.003Z,98782.84
2022-11-24T16:44:27.339Z,98787.38
2022-11-24T16:47:29.765Z,98792.47
2022-11-24T16:50:31.926Z,98802.56
2022-11-24T16:53:34.475Z,98805.25
2022-11-24T16:56:36.682Z,98805.72
2022-11-24T16:59:39.096Z,98805.16
2022-11-24T17:02:41.656Z,98808.78
2022-11-24T17:05:43.946Z,98825.84
2022-11-24T17:08:46.699Z,98819.50
2022-11-24T17:11:48.926Z,98821.81
2022-11-24T17:15:16.345Z,98825.22
2022-11-24T17:18:24.395Z,98819.50
2022-11-24T17:21:28.070Z,98824.91
2022-11-24T17:24:30.345Z,98830.78
2022-11-24T17:27:32.980Z,98833.53
2022-11-24T17:30:36.923Z,98830.06
2022-11-24T17:33:39.414Z,98839.12
2022-11-24T17:36:44.696Z,98835.97
2022-11-24T17:39:59.999Z,98842.59
2022-11-24T17:43:09.300Z,98840.78
2022-11-24T17:46:11.782Z,98847.22
2022-11-24T17:49:14.492Z,98844.75
2022-11-24T17:52:18.219Z,98842.03
2022-11-24T17:55:20.526Z,98856.03
2022-11-24T17:58:22.938Z,98860.47
2022-11-24T18:01:26.629Z,98860.00
2022-11-24T18:04:29.625Z,98862.97
2022-11-24T18:07:32.084Z,98870.84
2022-11-24T18:10:34.461Z,98871.81
2022-11-24T18:16:59.838Z,98883.50
2022-11-24T18:20:02.204Z,98885.97
2022-11-24T18:23:06.121Z,98890.59
2022-11-24T18:26:11.822Z,98898.31
2022-11-24T18:29:14.740Z,98894.28
2022-11-24T18:32:17.105Z,98903.06
2022-11-24T18:35:19.521Z,98904.22
2022-11-24T18:38:22.018Z,98909.53
2022-11-24T18:41:24.456Z,98911.34
2022-11-24T18:44:26.996Z,98920.69
2022-11-24T18:47:29.348Z,98919.75
2022-11-24T18:50:31.492Z,98929.16
2022-11-24T18:53:34.535Z,98922.69
2022-11-24T18:56:36.968Z,98928.59
2022-11-24T18:59:39.135Z,98936.53
2022-11-24T19:02:41.645Z,98944.25
2022-11-24T19:05:43.935Z,98949.84
2022-11-24T19:08:47.474Z,98949.50
2022-11-24T19:11:49.984Z,98944.75
2022-11-24T19:14:52.463Z,98942.00
2022-11-24T19:17:54.745Z,98937.03
2022-11-24T19:20:57.572Z,98952.81
2022-11-24T19:24:04.992Z,98955.41
2022-11-24T19:27:10.682Z,98956.03
2022-11-24T19:30:17.268Z,98959.47
2022-11-24T19:33:21.520Z,98965.91
2022-11-24T19:36:24.230Z,98965.09
2022-11-24T19:39:26.463Z,98963.59
2022-11-24T19:42:28.951Z,98965.06
2022-11-24T19:45:32.676Z,98970.31
2022-11-24T19:48:37.805Z,98971.31
2022-11-24T19:51:40.788Z,98982.78
2022-11-24T19:54:43.042Z,98974.59
2022-11-24T19:57:45.480Z,98980.16
2022-11-24T20:00:47.943Z,98989.69
2022-11-24T20:03:59.063Z,98992.00
2022-11-24T20:07:01.549Z,98990.34
2022-11-24T20:10:07.904Z,98995.91
2022-11-24T20:13:10.584Z,98993.81
2022-11-24T20:16:13.011Z,98999.91
2022-11-24T20:19:16.887Z,99003.84
2022-11-24T20:22:19.463Z,99018.13
2022-11-24T20:25:22.263Z,99020.56
2022-11-24T20:28:24.726Z,99030.09
2022-11-24T20:31:32.905Z,99030.91
2022-11-24T20:34:37.272Z,99034.38
2022-11-24T20:37:39.693Z,99037.16
2022-11-24T20:40:42.136Z,99033.53
2022-11-24T20:43:45.548Z,99043.72
2022-11-24T20:46:48.298Z,99048.97
2022-11-24T20:49:50.772Z,99045.19
2022-11-24T20:52:53.243Z,99044.72
2022-11-24T20:56:12.773Z,99050.28
2022-11-24T20:59:17.965Z,99054.22
2022-11-24T21:02:21.174Z,99059.16
2022-11-24T21:05:24.244Z,99054.72
2022-11-24T21:08:26.669Z,99053.91
2022-11-24T21:11:30.014Z,99057.84
2022-11-24T21:14:35.237Z,99052.09
2022-11-24T21:17:39.124Z,99063.56
2022-11-24T21:20:41.968Z,99058.00
2022-11-24T21:23:46.972Z,99067.66
2022-11-24T21:26:51.782Z,99071.75
2022-11-24T21:29:54.124Z,99067.31
2022-11-24T21:32:56.316Z,99068.34
2022-11-24T21:36:05.725Z,99067.66
2022-11-24T21:39:12.711Z,99074.91
2022-11-24T21:42:14.970Z,99086.34
2022-11-24T21:45:17.209Z,99084.19
2022-11-24T21:48:19.380Z,99093.16
2022-11-24T21:51:21.552Z,99095.59
2022-11-24T21:54:23.871Z,99088.72
2022-11-24T21:57:26.460Z,99088.72
2022-11-24T22:00:28.656Z,99083.66
2022-11-24T22:03:31.010Z,99092.50
2022-11-24T22:06:33.403Z,99086.75
2022-11-24T22:09:35.600Z,99092.19
2022-11-24T22:12:37.774Z,99086.13
2022-11-24T22:15:40.289Z,99090.91
2022-11-24T22:18:43.901Z,99089.28
2022-11-24T22:21:46.265Z,99086.91
2022-11-24T22:24:48.424Z,99092.19
2022-11-24T22:27:50.635Z,99091.53
2022-11-24T22:30:52.897Z,99092.19
2022-11-24T22:33:55.753Z,99091.69
2022-11-24T22:36:57.940Z,99106.16
2022-11-24T22:40:00.142Z,99109.44
2022-11-24T22:43:02.297Z,99116.28
2022-11-24T22:46:12.321Z,99118.19
2022-11-24T22:49:14.587Z,99114.72
2022-11-24T22:52:16.750Z,99115.09
2022-11-24T22:55:18.948Z,99119.72
2022-11-24T22:58:21.166Z,99130.38
2022-11-24T23:01:24.905Z,99126.84
2022-11-24T23:04:27.170Z,99122.81
2022-11-24T23:07:29.641Z,99122.38
2022-11-24T23:10:32.563Z,99129.91
2022-11-24T23:13:34.910Z,99132.06
2022-11-24T23:16:37.286Z,99135.69
2022-11-24T23:19:39.506Z,99133.97
2022-11-24T23:22:41.673Z,99133.84
2022-11-24T23:25:43.846Z,99133.53
2022-11-24T23:28:46.151Z,99137.47
2022-11-24T23:31:48.386Z,99143.94
2022-11-24T23:34:50.949Z,99137.38
2022-11-24T23:38:07.111Z,99144.28
2022-11-24T23:41:12.262Z,99146.09
2022-11-24T23:44:15.411Z,99155.31
2022-11-24T23:47:17.627Z,99161.38
2022-11-24T23:50:19.835Z,99162.69
2022-11-24T23:53:21.963Z,99166.62
2022-11-24T23:56:31.617Z,99162.69
2022-11-24T23:59:33.797Z,99169.25
